sensor_id;sensor_type;location;lat;lon;timestamp;P1;durP1;ratioP1;P2;durP2;ratioP2
69910;SDS011;63555;49.920;17.868;2023-08-24T00:03:07;5.40;;;3.30;;
69910;SDS011;63555;49.920;17.868;2023-08-24T00:08:08;6.00;;;3.80;;
69910;SDS011;63555;49.920;17.868;2023-08-24T00:13:09;7.93;;;3.70;;
69910;SDS011;63555;49.920;17.868;2023-08-24T00:18:10;7.20;;;3.80;;
69910;SDS011;63555;49.920;17.868;2023-08-24T00:23:10;6.47;;;4.10;;
69910;SDS011;63555;49.920;17.868;2023-08-24T00:28:10;8.93;;;3.77;;
69910;SDS011;63555;49.920;17.868;2023-08-24T00:33:11;8.00;;;4.20;;
69910;SDS011;63555;49.920;17.868;2023-08-24T00:38:11;5.53;;;3.50;;
69910;SDS011;63555;49.920;17.868;2023-08-24T00:43:11;6.50;;;3.57;;
69910;SDS011;63555;49.920;17.868;2023-08-24T00:48:13;7.72;;;3.53;;
69910;SDS011;63555;49.920;17.868;2023-08-24T00:53:13;6.43;;;3.60;;
69910;SDS011;63555;49.920;17.868;2023-08-24T00:58:14;5.03;;;3.30;;
69910;SDS011;63555;49.920;17.868;2023-08-24T01:03:14;6.90;;;3.30;;
69910;SDS011;63555;49.920;17.868;2023-08-24T01:08:15;8.18;;;3.63;;
69910;SDS011;63555;49.920;17.868;2023-08-24T01:13:18;8.30;;;3.70;;
69910;SDS011;63555;49.920;17.868;2023-08-24T01:18:25;7.47;;;3.97;;
69910;SDS011;63555;49.920;17.868;2023-08-24T01:23:43;7.13;;;3.00;;
69910;SDS011;63555;49.920;17.868;2023-08-24T01:29:00;6.93;;;3.38;;
69910;SDS011;63555;49.920;17.868;2023-08-24T01:34:01;5.60;;;3.23;;
69910;SDS011;63555;49.920;17.868;2023-08-24T01:39:04;6.03;;;3.40;;
69910;SDS011;63555;49.920;17.868;2023-08-24T01:44:12;5.95;;;3.03;;
69910;SDS011;63555;49.920;17.868;2023-08-24T01:49:18;7.75;;;3.47;;
69910;SDS011;63555;49.920;17.868;2023-08-24T01:54:19;5.97;;;3.50;;
69910;SDS011;63555;49.920;17.868;2023-08-24T01:59:20;5.83;;;3.33;;
69910;SDS011;63555;49.920;17.868;2023-08-24T02:04:20;8.90;;;3.77;;
69910;SDS011;63555;49.920;17.868;2023-08-24T02:09:21;7.80;;;3.93;;
69910;SDS011;63555;49.920;17.868;2023-08-24T02:14:21;8.00;;;3.77;;
69910;SDS011;63555;49.920;17.868;2023-08-24T02:19:21;8.30;;;3.73;;
69910;SDS011;63555;49.920;17.868;2023-08-24T02:24:22;7.40;;;3.83;;
69910;SDS011;63555;49.920;17.868;2023-08-24T02:29:22;7.57;;;3.70;;
69910;SDS011;63555;49.920;17.868;2023-08-24T02:34:22;5.13;;;2.90;;
69910;SDS011;63555;49.920;17.868;2023-08-24T02:39:23;8.47;;;3.50;;
69910;SDS011;63555;49.920;17.868;2023-08-24T02:44:23;7.17;;;3.20;;
69910;SDS011;63555;49.920;17.868;2023-08-24T02:49:23;8.03;;;3.53;;
69910;SDS011;63555;49.920;17.868;2023-08-24T02:54:24;8.10;;;3.30;;
69910;SDS011;63555;49.920;17.868;2023-08-24T02:59:24;7.27;;;3.20;;
69910;SDS011;63555;49.920;17.868;2023-08-24T03:04:24;5.73;;;3.10;;
69910;SDS011;63555;49.920;17.868;2023-08-24T03:09:25;13.03;;;3.70;;
69910;SDS011;63555;49.920;17.868;2023-08-24T03:14:25;5.43;;;2.83;;
69910;SDS011;63555;49.920;17.868;2023-08-24T03:19:26;8.07;;;3.00;;
69910;SDS011;63555;49.920;17.868;2023-08-24T03:24:26;6.80;;;3.50;;
69910;SDS011;63555;49.920;17.868;2023-08-24T03:29:26;6.63;;;3.47;;
69910;SDS011;63555;49.920;17.868;2023-08-24T03:34:27;6.63;;;3.40;;
69910;SDS011;63555;49.920;17.868;2023-08-24T03:39:27;7.07;;;3.53;;
69910;SDS011;63555;49.920;17.868;2023-08-24T03:44:27;6.50;;;3.60;;
69910;SDS011;63555;49.920;17.868;2023-08-24T03:49:28;5.63;;;3.60;;
69910;SDS011;63555;49.920;17.868;2023-08-24T03:54:28;9.47;;;3.80;;
69910;SDS011;63555;49.920;17.868;2023-08-24T03:59:28;9.10;;;3.53;;
69910;SDS011;63555;49.920;17.868;2023-08-24T04:04:32;8.17;;;3.83;;
69910;SDS011;63555;49.920;17.868;2023-08-24T04:09:32;10.15;;;4.03;;
69910;SDS011;63555;49.920;17.868;2023-08-24T04:14:33;6.40;;;3.77;;
69910;SDS011;63555;49.920;17.868;2023-08-24T04:19:33;6.27;;;3.90;;
69910;SDS011;63555;49.920;17.868;2023-08-24T04:24:37;6.23;;;3.67;;
69910;SDS011;63555;49.920;17.868;2023-08-24T04:29:37;8.57;;;3.93;;
69910;SDS011;63555;49.920;17.868;2023-08-24T04:34:38;14.27;;;4.40;;
69910;SDS011;63555;49.920;17.868;2023-08-24T04:39:38;10.83;;;4.17;;
69910;SDS011;63555;49.920;17.868;2023-08-24T04:44:38;8.83;;;4.10;;
69910;SDS011;63555;49.920;17.868;2023-08-24T04:49:39;7.73;;;4.40;;
69910;SDS011;63555;49.920;17.868;2023-08-24T04:54:39;7.87;;;4.50;;
69910;SDS011;63555;49.920;17.868;2023-08-24T04:59:40;8.90;;;4.80;;
69910;SDS011;63555;49.920;17.868;2023-08-24T05:04:40;8.67;;;4.63;;
69910;SDS011;63555;49.920;17.868;2023-08-24T05:09:40;10.83;;;5.83;;
69910;SDS011;63555;49.920;17.868;2023-08-24T05:14:41;8.27;;;5.20;;
69910;SDS011;63555;49.920;17.868;2023-08-24T05:19:41;9.30;;;5.33;;
69910;SDS011;63555;49.920;17.868;2023-08-24T05:24:42;10.50;;;5.57;;
69910;SDS011;63555;49.920;17.868;2023-08-24T05:29:43;10.50;;;5.43;;
69910;SDS011;63555;49.920;17.868;2023-08-24T05:34:44;9.37;;;6.03;;
69910;SDS011;63555;49.920;17.868;2023-08-24T05:39:45;11.10;;;5.72;;
69910;SDS011;63555;49.920;17.868;2023-08-24T05:44:45;7.57;;;4.87;;
69910;SDS011;63555;49.920;17.868;2023-08-24T05:49:46;7.77;;;5.03;;
69910;SDS011;63555;49.920;17.868;2023-08-24T05:54:46;9.90;;;4.23;;
69910;SDS011;63555;49.920;17.868;2023-08-24T05:59:47;11.50;;;4.67;;
69910;SDS011;63555;49.920;17.868;2023-08-24T06:04:47;9.40;;;4.33;;
69910;SDS011;63555;49.920;17.868;2023-08-24T06:09:47;7.50;;;4.33;;
69910;SDS011;63555;49.920;17.868;2023-08-24T06:14:48;8.40;;;3.77;;
69910;SDS011;63555;49.920;17.868;2023-08-24T06:19:48;6.77;;;3.70;;
69910;SDS011;63555;49.920;17.868;2023-08-24T06:24:48;7.63;;;3.00;;
69910;SDS011;63555;49.920;17.868;2023-08-24T06:29:49;8.97;;;3.40;;
69910;SDS011;63555;49.920;17.868;2023-08-24T06:34:49;6.50;;;3.00;;
69910;SDS011;63555;49.920;17.868;2023-08-24T06:39:50;4.63;;;2.77;;
69910;SDS011;63555;49.920;17.868;2023-08-24T06:44:50;6.03;;;2.97;;
69910;SDS011;63555;49.920;17.868;2023-08-24T06:49:50;4.70;;;3.17;;
69910;SDS011;63555;49.920;17.868;2023-08-24T06:54:51;5.10;;;3.20;;
69910;SDS011;63555;49.920;17.868;2023-08-24T06:59:53;5.78;;;2.83;;
69910;SDS011;63555;49.920;17.868;2023-08-24T07:04:53;7.07;;;5.13;;
69910;SDS011;63555;49.920;17.868;2023-08-24T07:09:57;5.45;;;3.17;;
69910;SDS011;63555;49.920;17.868;2023-08-24T07:14:57;7.50;;;2.90;;
69910;SDS011;63555;49.920;17.868;2023-08-24T07:19:58;7.97;;;2.90;;
69910;SDS011;63555;49.920;17.868;2023-08-24T07:24:58;4.13;;;2.80;;
69910;SDS011;63555;49.920;17.868;2023-08-24T07:30:00;5.97;;;2.60;;
69910;SDS011;63555;49.920;17.868;2023-08-24T07:35:05;7.40;;;2.80;;
69910;SDS011;63555;49.920;17.868;2023-08-24T07:40:06;6.40;;;2.50;;
69910;SDS011;63555;49.920;17.868;2023-08-24T07:45:08;5.38;;;2.90;;
69910;SDS011;63555;49.920;17.868;2023-08-24T07:50:09;5.87;;;2.60;;
69910;SDS011;63555;49.920;17.868;2023-08-24T07:55:10;5.65;;;2.60;;
69910;SDS011;63555;49.920;17.868;2023-08-24T08:00:11;4.37;;;2.73;;
69910;SDS011;63555;49.920;17.868;2023-08-24T08:05:13;5.20;;;2.95;;
69910;SDS011;63555;49.920;17.868;2023-08-24T08:10:14;6.23;;;3.10;;
69910;SDS011;63555;49.920;17.868;2023-08-24T08:15:17;4.37;;;2.70;;
69910;SDS011;63555;49.920;17.868;2023-08-24T08:20:17;4.60;;;2.60;;
69910;SDS011;63555;49.920;17.868;2023-08-24T08:25:17;7.17;;;2.70;;
69910;SDS011;63555;49.920;17.868;2023-08-24T08:30:18;5.97;;;2.90;;
69910;SDS011;63555;49.920;17.868;2023-08-24T08:35:21;6.90;;;3.03;;
69910;SDS011;63555;49.920;17.868;2023-08-24T08:40:23;5.15;;;2.80;;
69910;SDS011;63555;49.920;17.868;2023-08-24T08:45:29;5.13;;;2.80;;
69910;SDS011;63555;49.920;17.868;2023-08-24T08:50:29;6.97;;;2.93;;
69910;SDS011;63555;49.920;17.868;2023-08-24T08:55:33;9.20;;;3.37;;
69910;SDS011;63555;49.920;17.868;2023-08-24T09:00:34;5.30;;;2.90;;
69910;SDS011;63555;49.920;17.868;2023-08-24T09:05:36;6.70;;;3.13;;
69910;SDS011;63555;49.920;17.868;2023-08-24T09:10:37;4.83;;;3.10;;
69910;SDS011;63555;49.920;17.868;2023-08-24T09:15:38;6.50;;;2.90;;
69910;SDS011;63555;49.920;17.868;2023-08-24T09:20:38;4.43;;;3.03;;
69910;SDS011;63555;49.920;17.868;2023-08-24T09:25:45;4.60;;;3.00;;
69910;SDS011;63555;49.920;17.868;2023-08-24T09:30:48;4.80;;;2.60;;
69910;SDS011;63555;49.920;17.868;2023-08-24T09:35:54;4.30;;;2.72;;
69910;SDS011;63555;49.920;17.868;2023-08-24T09:41:01;7.75;;;3.25;;
69910;SDS011;63555;49.920;17.868;2023-08-24T09:46:03;4.70;;;2.80;;
69910;SDS011;63555;49.920;17.868;2023-08-24T09:51:04;6.90;;;3.40;;
69910;SDS011;63555;49.920;17.868;2023-08-24T09:56:05;3.92;;;2.80;;
69910;SDS011;63555;49.920;17.868;2023-08-24T10:01:08;5.73;;;3.10;;
69910;SDS011;63555;49.920;17.868;2023-08-24T10:06:09;4.22;;;2.92;;
69910;SDS011;63555;49.920;17.868;2023-08-24T10:11:12;6.85;;;3.10;;
69910;SDS011;63555;49.920;17.868;2023-08-24T10:16:17;5.27;;;3.30;;
69910;SDS011;63555;49.920;17.868;2023-08-24T10:21:19;4.88;;;3.10;;
69910;SDS011;63555;49.920;17.868;2023-08-24T10:26:20;3.65;;;2.95;;
69910;SDS011;63555;49.920;17.868;2023-08-24T10:31:21;4.00;;;3.20;;
69910;SDS011;63555;49.920;17.868;2023-08-24T10:36:22;5.22;;;3.10;;
69910;SDS011;63555;49.920;17.868;2023-08-24T10:41:26;4.85;;;3.42;;
69910;SDS011;63555;49.920;17.868;2023-08-24T10:46:27;4.73;;;3.20;;
69910;SDS011;63555;49.920;17.868;2023-08-24T10:51:27;4.47;;;3.20;;
69910;SDS011;63555;49.920;17.868;2023-08-24T10:56:32;4.00;;;3.22;;
69910;SDS011;63555;49.920;17.868;2023-08-24T11:01:43;5.20;;;3.40;;
69910;SDS011;63555;49.920;17.868;2023-08-24T11:06:54;4.50;;;3.23;;
69910;SDS011;63555;49.920;17.868;2023-08-24T11:12:00;4.80;;;2.83;;
69910;SDS011;63555;49.920;17.868;2023-08-24T11:17:18;6.45;;;3.08;;
69910;SDS011;63555;49.920;17.868;2023-08-24T11:22:20;6.20;;;3.20;;
69910;SDS011;63555;49.920;17.868;2023-08-24T11:27:21;3.90;;;2.80;;
69910;SDS011;63555;49.920;17.868;2023-08-24T11:32:21;4.47;;;3.30;;
69910;SDS011;63555;49.920;17.868;2023-08-24T11:37:22;4.53;;;3.30;;
69910;SDS011;63555;49.920;17.868;2023-08-24T11:42:22;5.60;;;3.50;;
69910;SDS011;63555;49.920;17.868;2023-08-24T11:47:22;4.67;;;3.40;;
69910;SDS011;63555;49.920;17.868;2023-08-24T11:52:24;4.78;;;3.30;;
69910;SDS011;63555;49.920;17.868;2023-08-24T11:57:24;4.97;;;3.43;;
69910;SDS011;63555;49.920;17.868;2023-08-24T12:02:26;5.10;;;3.22;;
69910;SDS011;63555;49.920;17.868;2023-08-24T12:07:27;4.40;;;3.67;;
69910;SDS011;63555;49.920;17.868;2023-08-24T12:12:28;6.82;;;3.40;;
69910;SDS011;63555;49.920;17.868;2023-08-24T12:17:28;4.03;;;3.60;;
69910;SDS011;63555;49.920;17.868;2023-08-24T12:22:29;5.20;;;3.57;;
69910;SDS011;63555;49.920;17.868;2023-08-24T12:27:29;4.47;;;3.40;;
69910;SDS011;63555;49.920;17.868;2023-08-24T12:32:42;4.67;;;3.57;;
69910;SDS011;63555;49.920;17.868;2023-08-24T12:37:46;5.90;;;3.37;;
69910;SDS011;63555;49.920;17.868;2023-08-24T12:42:47;6.23;;;3.43;;
69910;SDS011;63555;49.920;17.868;2023-08-24T12:47:47;5.00;;;3.30;;
69910;SDS011;63555;49.920;17.868;2023-08-24T12:52:47;6.28;;;3.50;;
69910;SDS011;63555;49.920;17.868;2023-08-24T12:57:49;5.27;;;2.87;;
69910;SDS011;63555;49.920;17.868;2023-08-24T13:02:49;5.07;;;3.73;;
69910;SDS011;63555;49.920;17.868;2023-08-24T13:07:51;5.55;;;3.60;;
69910;SDS011;63555;49.920;17.868;2023-08-24T13:12:52;7.90;;;3.30;;
69910;SDS011;63555;49.920;17.868;2023-08-24T13:17:52;4.93;;;3.23;;
69910;SDS011;63555;49.920;17.868;2023-08-24T13:22:53;6.10;;;3.50;;
69910;SDS011;63555;49.920;17.868;2023-08-24T13:27:53;4.80;;;3.03;;
69910;SDS011;63555;49.920;17.868;2023-08-24T13:32:56;5.47;;;3.20;;
69910;SDS011;63555;49.920;17.868;2023-08-24T13:37:56;5.60;;;3.20;;
69910;SDS011;63555;49.920;17.868;2023-08-24T13:42:56;4.80;;;3.43;;
69910;SDS011;63555;49.920;17.868;2023-08-24T13:47:57;4.50;;;2.93;;
69910;SDS011;63555;49.920;17.868;2023-08-24T13:52:57;4.70;;;3.10;;
69910;SDS011;63555;49.920;17.868;2023-08-24T13:57:58;7.50;;;3.10;;
69910;SDS011;63555;49.920;17.868;2023-08-24T14:02:58;3.90;;;2.80;;
69910;SDS011;63555;49.920;17.868;2023-08-24T14:07:59;5.40;;;3.23;;
69910;SDS011;63555;49.920;17.868;2023-08-24T14:12:59;5.30;;;2.50;;
69910;SDS011;63555;49.920;17.868;2023-08-24T14:18:00;8.17;;;2.97;;
69910;SDS011;63555;49.920;17.868;2023-08-24T14:23:00;3.57;;;2.20;;
69910;SDS011;63555;49.920;17.868;2023-08-24T14:28:02;4.20;;;2.50;;
69910;SDS011;63555;49.920;17.868;2023-08-24T14:33:02;4.03;;;2.50;;
69910;SDS011;63555;49.920;17.868;2023-08-24T14:38:03;5.03;;;2.00;;
69910;SDS011;63555;49.920;17.868;2023-08-24T14:43:03;4.77;;;2.30;;
69910;SDS011;63555;49.920;17.868;2023-08-24T14:48:03;4.93;;;2.50;;
69910;SDS011;63555;49.920;17.868;2023-08-24T14:53:05;3.78;;;2.20;;
69910;SDS011;63555;49.920;17.868;2023-08-24T14:58:06;4.50;;;2.17;;
69910;SDS011;63555;49.920;17.868;2023-08-24T15:03:07;5.05;;;2.20;;
69910;SDS011;63555;49.920;17.868;2023-08-24T15:08:09;4.03;;;2.40;;
69910;SDS011;63555;49.920;17.868;2023-08-24T15:13:09;5.23;;;2.37;;
69910;SDS011;63555;49.920;17.868;2023-08-24T15:18:10;3.27;;;2.10;;
69910;SDS011;63555;49.920;17.868;2023-08-24T15:23:19;6.50;;;2.63;;
69910;SDS011;63555;49.920;17.868;2023-08-24T15:28:21;4.43;;;2.20;;
69910;SDS011;63555;49.920;17.868;2023-08-24T15:33:22;5.22;;;2.35;;
69910;SDS011;63555;49.920;17.868;2023-08-24T15:38:22;4.57;;;2.43;;
69910;SDS011;63555;49.920;17.868;2023-08-24T15:43:22;4.57;;;2.20;;
69910;SDS011;63555;49.920;17.868;2023-08-24T15:48:23;5.73;;;2.40;;
69910;SDS011;63555;49.920;17.868;2023-08-24T15:53:23;4.23;;;2.07;;
69910;SDS011;63555;49.920;17.868;2023-08-24T15:58:24;4.47;;;2.30;;
69910;SDS011;63555;49.920;17.868;2023-08-24T16:03:24;9.10;;;2.53;;
69910;SDS011;63555;49.920;17.868;2023-08-24T16:08:24;6.27;;;2.57;;
69910;SDS011;63555;49.920;17.868;2023-08-24T16:13:25;5.37;;;2.00;;
69910;SDS011;63555;49.920;17.868;2023-08-24T16:18:26;3.83;;;2.03;;
69910;SDS011;63555;49.920;17.868;2023-08-24T16:23:26;4.73;;;2.43;;
69910;SDS011;63555;49.920;17.868;2023-08-24T16:28:28;4.35;;;2.10;;
69910;SDS011;63555;49.920;17.868;2023-08-24T16:33:28;5.50;;;2.23;;
69910;SDS011;63555;49.920;17.868;2023-08-24T16:38:29;5.43;;;2.10;;
69910;SDS011;63555;49.920;17.868;2023-08-24T16:43:29;5.50;;;2.37;;
69910;SDS011;63555;49.920;17.868;2023-08-24T16:48:29;4.00;;;2.10;;
69910;SDS011;63555;49.920;17.868;2023-08-24T16:53:30;5.73;;;2.23;;
69910;SDS011;63555;49.920;17.868;2023-08-24T16:58:31;5.53;;;2.10;;
69910;SDS011;63555;49.920;17.868;2023-08-24T17:03:32;6.70;;;2.28;;
69910;SDS011;63555;49.920;17.868;2023-08-24T17:08:33;4.37;;;2.27;;
69910;SDS011;63555;49.920;17.868;2023-08-24T17:13:34;7.05;;;2.25;;
69910;SDS011;63555;49.920;17.868;2023-08-24T17:18:34;3.88;;;1.98;;
69910;SDS011;63555;49.920;17.868;2023-08-24T17:23:35;6.80;;;2.27;;
69910;SDS011;63555;49.920;17.868;2023-08-24T17:28:35;6.20;;;2.50;;
69910;SDS011;63555;49.920;17.868;2023-08-24T17:33:36;7.00;;;2.75;;
69910;SDS011;63555;49.920;17.868;2023-08-24T17:38:37;7.10;;;2.75;;
69910;SDS011;63555;49.920;17.868;2023-08-24T17:43:37;10.45;;;3.15;;
69910;SDS011;63555;49.920;17.868;2023-08-24T17:48:40;6.57;;;2.90;;
69910;SDS011;63555;49.920;17.868;2023-08-24T17:53:41;7.93;;;3.25;;
69910;SDS011;63555;49.920;17.868;2023-08-24T17:58:41;7.27;;;2.87;;
69910;SDS011;63555;49.920;17.868;2023-08-24T18:03:41;5.40;;;2.73;;
69910;SDS011;63555;49.920;17.868;2023-08-24T18:08:42;6.23;;;2.53;;
69910;SDS011;63555;49.920;17.868;2023-08-24T18:13:42;5.17;;;3.00;;
69910;SDS011;63555;49.920;17.868;2023-08-24T18:18:43;8.47;;;2.90;;
69910;SDS011;63555;49.920;17.868;2023-08-24T18:23:44;5.93;;;2.63;;
69910;SDS011;63555;49.920;17.868;2023-08-24T18:28:44;7.83;;;2.47;;
69910;SDS011;63555;49.920;17.868;2023-08-24T18:33:45;8.80;;;2.90;;
69910;SDS011;63555;49.920;17.868;2023-08-24T18:38:45;6.27;;;2.90;;
69910;SDS011;63555;49.920;17.868;2023-08-24T18:43:46;7.03;;;2.93;;
69910;SDS011;63555;49.920;17.868;2023-08-24T18:48:46;7.40;;;2.50;;
69910;SDS011;63555;49.920;17.868;2023-08-24T18:53:47;5.93;;;3.10;;
69910;SDS011;63555;49.920;17.868;2023-08-24T18:58:47;4.77;;;2.83;;
69910;SDS011;63555;49.920;17.868;2023-08-24T19:03:47;5.57;;;2.80;;
69910;SDS011;63555;49.920;17.868;2023-08-24T19:08:48;6.17;;;2.80;;
69910;SDS011;63555;49.920;17.868;2023-08-24T19:13:48;4.97;;;2.73;;
69910;SDS011;63555;49.920;17.868;2023-08-24T19:18:49;6.63;;;3.13;;
69910;SDS011;63555;49.920;17.868;2023-08-24T19:23:50;5.68;;;2.85;;
69910;SDS011;63555;49.920;17.868;2023-08-24T19:28:50;6.23;;;3.03;;
69910;SDS011;63555;49.920;17.868;2023-08-24T19:33:51;5.97;;;2.93;;
69910;SDS011;63555;49.920;17.868;2023-08-24T19:38:51;6.20;;;3.20;;
69910;SDS011;63555;49.920;17.868;2023-08-24T19:43:52;10.70;;;3.33;;
69910;SDS011;63555;49.920;17.868;2023-08-24T19:48:52;7.00;;;3.70;;
69910;SDS011;63555;49.920;17.868;2023-08-24T19:53:53;8.57;;;3.50;;
69910;SDS011;63555;49.920;17.868;2023-08-24T19:58:53;7.53;;;3.23;;
69910;SDS011;63555;49.920;17.868;2023-08-24T20:03:53;7.70;;;3.80;;
69910;SDS011;63555;49.920;17.868;2023-08-24T20:08:54;6.90;;;3.20;;
69910;SDS011;63555;49.920;17.868;2023-08-24T20:13:54;7.43;;;3.20;;
69910;SDS011;63555;49.920;17.868;2023-08-24T20:18:55;5.87;;;2.97;;
69910;SDS011;63555;49.920;17.868;2023-08-24T20:23:56;6.70;;;3.10;;
69910;SDS011;63555;49.920;17.868;2023-08-24T20:28:56;6.50;;;3.70;;
69910;SDS011;63555;49.920;17.868;2023-08-24T20:33:56;10.80;;;3.63;;
69910;SDS011;63555;49.920;17.868;2023-08-24T20:38:57;7.72;;;3.80;;
69910;SDS011;63555;49.920;17.868;2023-08-24T20:43:57;6.73;;;3.23;;
69910;SDS011;63555;49.920;17.868;2023-08-24T20:48:58;5.73;;;3.50;;
69910;SDS011;63555;49.920;17.868;2023-08-24T20:53:58;5.57;;;3.45;;
69910;SDS011;63555;49.920;17.868;2023-08-24T20:58:58;5.15;;;3.50;;
69910;SDS011;63555;49.920;17.868;2023-08-24T21:03:59;9.73;;;3.93;;
69910;SDS011;63555;49.920;17.868;2023-08-24T21:08:59;5.60;;;3.40;;
69910;SDS011;63555;49.920;17.868;2023-08-24T21:14:00;7.53;;;3.50;;
69910;SDS011;63555;49.920;17.868;2023-08-24T21:19:01;7.03;;;4.07;;
69910;SDS011;63555;49.920;17.868;2023-08-24T21:24:01;7.50;;;3.97;;
69910;SDS011;63555;49.920;17.868;2023-08-24T21:29:02;5.27;;;3.23;;
69910;SDS011;63555;49.920;17.868;2023-08-24T21:34:02;6.90;;;3.90;;
69910;SDS011;63555;49.920;17.868;2023-08-24T21:39:02;7.95;;;3.70;;
69910;SDS011;63555;49.920;17.868;2023-08-24T21:44:03;6.75;;;3.92;;
69910;SDS011;63555;49.920;17.868;2023-08-24T21:49:04;8.40;;;3.27;;
69910;SDS011;63555;49.920;17.868;2023-08-24T21:54:05;7.80;;;4.75;;
69910;SDS011;63555;49.920;17.868;2023-08-24T21:59:06;6.40;;;3.73;;
69910;SDS011;63555;49.920;17.868;2023-08-24T22:04:07;5.72;;;3.42;;
69910;SDS011;63555;49.920;17.868;2023-08-24T22:09:07;7.60;;;4.40;;
69910;SDS011;63555;49.920;17.868;2023-08-24T22:14:08;6.13;;;4.03;;
69910;SDS011;63555;49.920;17.868;2023-08-24T22:19:08;9.27;;;4.00;;
69910;SDS011;63555;49.920;17.868;2023-08-24T22:24:09;6.00;;;4.07;;
69910;SDS011;63555;49.920;17.868;2023-08-24T22:29:09;9.33;;;4.43;;
69910;SDS011;63555;49.920;17.868;2023-08-24T22:34:09;7.77;;;3.90;;
69910;SDS011;63555;49.920;17.868;2023-08-24T22:39:10;7.20;;;4.00;;
69910;SDS011;63555;49.920;17.868;2023-08-24T22:44:10;8.03;;;4.20;;
69910;SDS011;63555;49.920;17.868;2023-08-24T22:49:11;8.97;;;4.00;;
69910;SDS011;63555;49.920;17.868;2023-08-24T22:54:11;8.83;;;4.07;;
69910;SDS011;63555;49.920;17.868;2023-08-24T22:59:16;6.78;;;4.10;;
69910;SDS011;63555;49.920;17.868;2023-08-24T23:04:16;7.63;;;3.93;;
69910;SDS011;63555;49.920;17.868;2023-08-24T23:09:17;12.30;;;4.27;;
69910;SDS011;63555;49.920;17.868;2023-08-24T23:14:19;7.25;;;4.00;;
69910;SDS011;63555;49.920;17.868;2023-08-24T23:19:20;7.93;;;4.45;;
69910;SDS011;63555;49.920;17.868;2023-08-24T23:24:20;15.17;;;4.43;;
69910;SDS011;63555;49.920;17.868;2023-08-24T23:29:21;8.80;;;4.20;;
69910;SDS011;63555;49.920;17.868;2023-08-24T23:34:21;8.13;;;5.10;;
69910;SDS011;63555;49.920;17.868;2023-08-24T23:39:21;9.23;;;4.40;;
69910;SDS011;63555;49.920;17.868;2023-08-24T23:44:22;8.90;;;4.70;;
69910;SDS011;63555;49.920;17.868;2023-08-24T23:49:22;8.83;;;4.67;;
69910;SDS011;63555;49.920;17.868;2023-08-24T23:54:23;9.07;;;4.40;;
69910;SDS011;63555;49.920;17.868;2023-08-24T23:59:23;7.20;;;4.50;;
